createdAt,value
2018-07-04T00:00:10.257Z,92.50
2018-07-04T00:02:49.757Z,91.70
2018-07-04T00:05:29.427Z,91.60
2018-07-04T00:08:09.058Z,92.30
2018-07-04T00:10:48.740Z,92.20
2018-07-04T00:13:28.315Z,92.00
2018-07-04T00:16:07.868Z,91.80
2018-07-04T00:18:47.375Z,91.70
2018-07-04T00:21:26.940Z,91.90
2018-07-04T00:24:06.516Z,92.00
2018-07-04T00:26:46.120Z,92.20
2018-07-04T00:29:25.875Z,92.40
2018-07-04T00:32:05.623Z,92.50
2018-07-04T00:34:45.182Z,92.40
2018-07-04T00:37:24.844Z,92.60
2018-07-04T00:40:04.429Z,92.60
2018-07-04T00:42:44.026Z,92.40
2018-07-04T00:45:23.696Z,92.50
2018-07-04T00:48:03.393Z,92.40
2018-07-04T00:50:42.852Z,92.20
2018-07-04T00:53:22.410Z,92.00
2018-07-04T00:56:01.859Z,92.50
2018-07-04T00:58:41.427Z,92.40
2018-07-04T01:01:21.020Z,92.20
2018-07-04T01:04:00.716Z,92.50
2018-07-04T01:06:40.400Z,92.40
2018-07-04T01:09:20.025Z,92.30
2018-07-04T01:11:59.643Z,92.50
2018-07-04T01:14:39.316Z,92.40
2018-07-04T01:17:18.828Z,92.40
2018-07-04T01:19:58.368Z,92.40
2018-07-04T01:22:38.027Z,92.50
2018-07-04T01:25:17.544Z,92.50
2018-07-04T01:27:57.191Z,92.80
2018-07-04T01:30:36.655Z,92.70
2018-07-04T01:33:16.286Z,92.90
2018-07-04T01:35:55.713Z,92.90
2018-07-04T01:38:35.387Z,92.90
2018-07-04T01:41:15.066Z,93.30
2018-07-04T01:46:28.414Z,94.10
2018-07-04T01:49:07.951Z,94.40
2018-07-04T01:51:47.712Z,94.90
2018-07-04T01:54:27.179Z,95.20
2018-07-04T01:57:06.766Z,95.10
2018-07-04T01:59:46.363Z,95.00
2018-07-04T02:02:25.890Z,95.30
2018-07-04T02:05:05.457Z,95.30
2018-07-04T02:07:44.943Z,95.30
2018-07-04T02:10:24.460Z,95.40
2018-07-04T02:13:04.080Z,95.20
2018-07-04T02:15:43.825Z,95.30
2018-07-04T02:18:23.403Z,95.20
2018-07-04T02:21:03.004Z,95.30
2018-07-04T02:23:42.543Z,95.00
2018-07-04T02:26:22.236Z,95.20
2018-07-04T02:29:01.835Z,95.10
2018-07-04T02:31:41.396Z,95.00
2018-07-04T02:34:25.378Z,95.10
2018-07-04T02:37:06.497Z,95.00
2018-07-04T02:39:46.515Z,95.10
2018-07-04T02:42:26.183Z,95.00
2018-07-04T02:45:05.929Z,94.90
2018-07-04T02:47:45.513Z,95.20
2018-07-04T02:50:25.026Z,95.10
2018-07-04T02:53:04.468Z,94.90
2018-07-04T02:55:44.006Z,95.00
2018-07-04T02:58:23.656Z,95.20
2018-07-04T03:01:03.220Z,95.30
2018-07-04T03:03:42.869Z,95.20
2018-07-04T03:06:22.448Z,95.20
2018-07-04T03:09:01.893Z,95.40
2018-07-04T03:11:41.268Z,95.70
2018-07-04T03:14:20.924Z,96.10
2018-07-04T03:17:00.516Z,96.60
2018-07-04T03:19:40.044Z,96.90
2018-07-04T03:22:19.658Z,97.10
2018-07-04T03:24:59.180Z,97.30
2018-07-04T03:27:38.527Z,97.30
2018-07-04T03:30:18.061Z,97.30
2018-07-04T03:32:57.611Z,97.50
2018-07-04T03:35:37.137Z,97.50
2018-07-04T03:38:16.727Z,97.50
2018-07-04T03:40:56.184Z,97.50
2018-07-04T03:43:35.793Z,97.50
2018-07-04T03:46:15.284Z,97.70
2018-07-04T03:48:54.848Z,97.60
2018-07-04T03:51:34.633Z,97.50
2018-07-04T03:54:14.158Z,97.50
2018-07-04T03:56:53.710Z,97.70
2018-07-04T03:59:33.284Z,97.50
2018-07-04T04:02:12.677Z,97.50
2018-07-04T04:04:52.240Z,97.50
2018-07-04T04:07:31.658Z,97.50
2018-07-04T04:10:11.200Z,97.50
2018-07-04T04:12:50.747Z,97.40
2018-07-04T04:15:30.424Z,97.40
2018-07-04T04:18:09.980Z,97.70
2018-07-04T04:20:49.336Z,97.70
2018-07-04T04:23:28.864Z,97.70
2018-07-04T04:26:08.569Z,97.60
2018-07-04T04:28:48.346Z,97.90
2018-07-04T04:31:28.005Z,98.10
2018-07-04T04:34:07.686Z,98.00
2018-07-04T04:36:47.440Z,98.10
2018-07-04T04:39:26.944Z,98.00
2018-07-04T04:42:06.544Z,98.10
2018-07-04T04:44:46.092Z,98.20
2018-07-04T04:47:25.612Z,98.30
2018-07-04T04:50:05.229Z,98.40
2018-07-04T04:52:44.761Z,98.50
2018-07-04T04:55:24.436Z,98.60
2018-07-04T04:58:04.084Z,98.80
2018-07-04T05:00:43.609Z,99.00
2018-07-04T05:03:23.065Z,99.00
2018-07-04T05:06:02.595Z,99.10
2018-07-04T05:08:42.257Z,99.50
2018-07-04T05:11:21.689Z,99.70
2018-07-04T05:14:01.282Z,99.80
2018-07-04T05:16:40.864Z,99.80
2018-07-04T05:19:20.416Z,99.90
2018-07-04T05:21:59.833Z,99.40
2018-07-04T05:24:39.400Z,98.90
2018-07-04T05:27:19.089Z,98.90
2018-07-04T05:29:58.652Z,98.60
2018-07-04T05:32:38.361Z,98.00
2018-07-04T05:35:17.961Z,98.50
2018-07-04T05:37:57.583Z,98.40
2018-07-04T05:40:37.182Z,98.60
2018-07-04T05:43:16.760Z,97.50
2018-07-04T05:45:56.426Z,97.40
2018-07-04T05:48:36.089Z,97.80
2018-07-04T05:51:15.824Z,98.00
2018-07-04T05:53:55.269Z,97.80
2018-07-04T05:56:34.917Z,97.70
2018-07-04T05:59:14.421Z,97.20
2018-07-04T06:01:53.984Z,97.00
2018-07-04T06:04:33.546Z,97.20
2018-07-04T06:08:16.192Z,96.70
2018-07-04T06:10:55.878Z,97.00
2018-07-04T06:13:35.459Z,95.90
2018-07-04T06:16:14.938Z,94.90
2018-07-04T06:18:54.540Z,94.70
2018-07-04T06:21:34.341Z,94.00
2018-07-04T06:24:14.025Z,93.80
2018-07-04T06:26:53.572Z,94.00
2018-07-04T06:29:33.079Z,93.80
2018-07-04T06:32:12.757Z,93.00
2018-07-04T06:34:52.292Z,93.40
2018-07-04T06:37:31.736Z,93.10
2018-07-04T06:39:58.932Z,91.80
2018-07-04T06:42:26.101Z,91.30
2018-07-04T06:44:53.261Z,91.70
2018-07-04T06:47:20.432Z,91.30
2018-07-04T06:49:47.604Z,91.90
2018-07-04T06:52:14.787Z,91.10
2018-07-04T06:54:41.965Z,91.00
2018-07-04T06:57:09.170Z,91.40
2018-07-04T06:59:36.345Z,91.50
2018-07-04T07:02:12.868Z,90.50
2018-07-04T07:04:53.768Z,90.20
2018-07-04T07:07:33.530Z,90.70
2018-07-04T07:10:13.134Z,90.20
2018-07-04T07:12:52.665Z,89.30
2018-07-04T07:15:32.579Z,88.40
2018-07-04T07:18:13.234Z,87.60
2018-07-04T07:20:52.820Z,89.00
2018-07-04T07:23:32.723Z,86.70
2018-07-04T07:26:12.373Z,87.20
2018-07-04T07:28:52.204Z,85.90
2018-07-04T07:31:31.619Z,84.20
2018-07-04T07:34:11.285Z,85.90
2018-07-04T07:36:50.723Z,84.70
2018-07-04T07:39:30.345Z,85.50
2018-07-04T07:42:09.921Z,82.60
2018-07-04T07:44:49.311Z,82.40
2018-07-04T07:47:28.909Z,82.20
2018-07-04T07:50:08.520Z,81.90
2018-07-04T07:52:48.067Z,81.90
2018-07-04T07:55:27.591Z,80.40
2018-07-04T07:58:07.173Z,81.70
2018-07-04T08:00:46.683Z,78.90
2018-07-04T08:03:26.117Z,80.40
2018-07-04T08:06:05.674Z,78.80
2018-07-04T08:08:45.147Z,79.30
2018-07-04T08:11:24.764Z,80.00
2018-07-04T08:14:04.283Z,78.60
2018-07-04T08:16:43.949Z,78.80
2018-07-04T08:19:23.490Z,78.10
2018-07-04T08:22:03.170Z,79.90
2018-07-04T08:24:42.651Z,77.90
2018-07-04T08:27:22.141Z,78.80
2018-07-04T08:30:01.786Z,78.90
2018-07-04T08:32:41.464Z,77.20
2018-07-04T08:35:21.185Z,77.50
2018-07-04T08:38:00.663Z,76.40
2018-07-04T08:40:40.394Z,77.20
2018-07-04T08:43:20.084Z,76.20
2018-07-04T08:45:59.641Z,76.80
2018-07-04T08:48:39.265Z,74.30
2018-07-04T08:51:18.880Z,74.40
2018-07-04T08:53:58.627Z,73.30
2018-07-04T08:56:38.064Z,72.60
2018-07-04T08:59:17.622Z,71.40
2018-07-04T09:01:57.256Z,70.80
2018-07-04T09:04:36.805Z,70.20
2018-07-04T09:07:16.459Z,70.40
2018-07-04T09:09:56.105Z,69.90
2018-07-04T09:12:35.573Z,67.60
2018-07-04T09:15:15.072Z,67.30
2018-07-04T09:17:54.736Z,67.30
2018-07-04T09:20:34.164Z,67.20
2018-07-04T09:23:13.595Z,68.70
2018-07-04T09:25:53.272Z,67.20
2018-07-04T09:28:32.904Z,67.80
2018-07-04T09:31:12.501Z,67.80
2018-07-04T09:33:52.100Z,65.50
2018-07-04T09:36:31.490Z,65.70
2018-07-04T09:39:11.071Z,63.80
2018-07-04T09:41:50.861Z,65.00
2018-07-04T09:44:30.556Z,63.70
2018-07-04T09:47:10.268Z,64.80
2018-07-04T09:49:50.023Z,62.70
2018-07-04T09:52:29.862Z,58.60
2018-07-04T09:55:09.444Z,60.40
2018-07-04T09:57:48.915Z,61.30
2018-07-04T10:00:29.901Z,61.70
2018-07-04T10:03:10.579Z,62.40
2018-07-04T10:05:50.601Z,60.40
2018-07-04T10:08:30.117Z,62.10
2018-07-04T10:11:10.332Z,62.10
2018-07-04T10:13:49.965Z,58.50
2018-07-04T10:16:29.611Z,57.60
2018-07-04T10:19:09.101Z,57.90
2018-07-04T10:21:48.713Z,58.80
2018-07-04T10:24:28.211Z,57.90
2018-07-04T10:27:07.890Z,58.60
2018-07-04T10:29:47.601Z,57.50
2018-07-04T10:32:27.170Z,57.60
2018-07-04T10:35:06.803Z,57.40
2018-07-04T10:40:20.087Z,58.30
2018-07-04T10:42:59.819Z,56.60
2018-07-04T10:45:39.449Z,57.50
2018-07-04T10:48:19.076Z,58.00
2018-07-04T10:50:58.744Z,56.80
2018-07-04T10:53:38.461Z,58.50
2018-07-04T10:56:17.988Z,57.50
2018-07-04T10:58:57.614Z,57.00
2018-07-04T11:01:37.212Z,57.60
2018-07-04T11:04:16.881Z,57.70
2018-07-04T11:06:56.469Z,57.20
2018-07-04T11:09:36.292Z,56.30
2018-07-04T11:12:15.954Z,56.40
2018-07-04T11:14:55.759Z,56.10
2018-07-04T11:17:35.537Z,57.70
2018-07-04T11:20:14.987Z,57.60
2018-07-04T11:22:54.557Z,56.40
2018-07-04T11:25:33.955Z,57.10
2018-07-04T11:28:13.631Z,58.20
2018-07-04T11:30:53.324Z,58.90
2018-07-04T11:33:32.881Z,57.20
2018-07-04T11:36:12.422Z,57.70
2018-07-04T11:38:51.996Z,57.00
2018-07-04T11:41:31.629Z,57.10
2018-07-04T11:44:11.071Z,57.90
2018-07-04T11:46:38.240Z,58.90
2018-07-04T11:49:05.448Z,58.80
2018-07-04T11:51:32.618Z,57.80
2018-07-04T11:53:59.788Z,58.90
2018-07-04T11:56:27.054Z,57.10
2018-07-04T11:58:54.157Z,58.70
2018-07-04T12:01:21.329Z,58.50
2018-07-04T12:04:01.029Z,59.00
2018-07-04T12:06:40.675Z,57.80
2018-07-04T12:09:07.864Z,58.30
2018-07-04T12:11:35.942Z,58.20
2018-07-04T12:14:03.116Z,57.60
2018-07-04T12:16:30.297Z,58.50
2018-07-04T12:18:57.472Z,58.10
2018-07-04T12:21:24.650Z,57.40
2018-07-04T12:23:51.835Z,58.00
2018-07-04T12:26:19.008Z,57.30
2018-07-04T12:28:46.200Z,58.10
2018-07-04T12:31:13.388Z,57.70
2018-07-04T12:33:40.558Z,57.80
2018-07-04T12:36:07.737Z,57.20
2018-07-04T12:38:34.993Z,57.90
2018-07-04T12:41:02.185Z,57.80
2018-07-04T12:43:29.390Z,57.70
2018-07-04T12:45:56.544Z,58.40
2018-07-04T12:48:23.749Z,57.10
2018-07-04T12:50:50.924Z,57.30
2018-07-04T12:53:18.088Z,57.70
2018-07-04T12:55:57.745Z,56.40
2018-07-04T12:58:37.461Z,56.50
2018-07-04T13:01:17.067Z,56.50
2018-07-04T13:03:56.759Z,56.50
2018-07-04T13:06:36.551Z,57.60
2018-07-04T13:15:01.148Z,57.20
2018-07-04T13:17:40.810Z,57.50
2018-07-04T13:23:11.312Z,56.20
2018-07-04T13:28:24.576Z,56.00
2018-07-04T13:31:04.257Z,56.70
2018-07-04T13:33:43.870Z,56.50
2018-07-04T13:36:23.676Z,56.70
2018-07-04T13:39:03.624Z,56.00
2018-07-04T13:41:43.251Z,57.10
2018-07-04T13:44:22.903Z,56.20
2018-07-04T13:47:02.492Z,56.10
2018-07-04T13:49:42.142Z,56.70
2018-07-04T13:52:21.724Z,56.20
2018-07-04T13:55:01.325Z,56.20
2018-07-04T13:57:41.031Z,56.90
2018-07-04T14:00:20.706Z,56.70
2018-07-04T14:03:00.307Z,56.00
2018-07-04T14:05:39.847Z,55.90
2018-07-04T14:08:19.473Z,56.60
2018-07-04T14:10:59.025Z,56.90
2018-07-04T14:13:38.507Z,57.50
2018-07-04T14:16:18.061Z,56.70
2018-07-04T14:18:57.745Z,57.50
2018-07-04T14:21:37.372Z,58.90
2018-07-04T14:24:16.961Z,58.10
2018-07-04T14:26:56.453Z,57.70
2018-07-04T14:29:35.970Z,56.80
2018-07-04T14:32:15.668Z,58.00
2018-07-04T14:34:55.280Z,57.90
2018-07-04T14:37:34.899Z,57.80
2018-07-04T14:40:14.367Z,58.00
2018-07-04T14:42:53.969Z,57.70
2018-07-04T14:45:33.576Z,57.50
2018-07-04T14:48:13.297Z,58.00
2018-07-04T14:50:52.828Z,57.80
2018-07-04T14:53:32.413Z,57.90
2018-07-04T14:56:11.924Z,58.50
2018-07-04T14:58:51.463Z,58.50
2018-07-04T15:01:31.129Z,58.30
2018-07-04T15:04:10.873Z,58.40
2018-07-04T15:06:50.403Z,57.80
2018-07-04T15:09:29.909Z,58.30
2018-07-04T15:12:09.558Z,59.40
2018-07-04T15:14:49.089Z,58.70
2018-07-04T15:17:28.614Z,58.90
2018-07-04T15:20:08.195Z,58.90
2018-07-04T15:22:47.895Z,59.70
2018-07-04T15:25:27.408Z,59.10
2018-07-04T15:28:07.083Z,59.00
2018-07-04T15:30:46.777Z,60.50
2018-07-04T15:33:26.249Z,60.30
2018-07-04T15:36:05.779Z,60.70
2018-07-04T15:38:45.321Z,60.60
2018-07-04T15:41:24.808Z,60.10
2018-07-04T15:44:04.188Z,60.00
2018-07-04T15:46:43.868Z,61.00
2018-07-04T15:49:23.377Z,61.00
2018-07-04T15:52:02.905Z,60.10
2018-07-04T15:54:42.616Z,60.50
2018-07-04T15:57:22.244Z,60.30
2018-07-04T16:00:01.793Z,60.60
2018-07-04T16:02:41.577Z,61.40
2018-07-04T16:05:21.948Z,60.60
2018-07-04T16:08:01.661Z,61.00
2018-07-04T16:10:41.353Z,61.10
2018-07-04T16:13:20.897Z,61.00
2018-07-04T16:16:00.365Z,60.40
2018-07-04T16:18:40.118Z,61.20
2018-07-04T16:21:19.722Z,61.80
2018-07-04T16:23:59.277Z,60.90
2018-07-04T16:26:38.782Z,62.30
2018-07-04T16:29:18.432Z,62.50
2018-07-04T16:31:58.068Z,62.20
2018-07-04T16:34:37.724Z,62.70
2018-07-04T16:37:17.482Z,62.20
2018-07-04T16:39:57.462Z,63.00
2018-07-04T16:42:37.208Z,62.10
2018-07-04T16:45:16.953Z,62.60
2018-07-04T16:47:56.462Z,63.10
2018-07-04T16:50:36.016Z,64.20
2018-07-04T16:53:15.678Z,63.30
2018-07-04T16:55:55.312Z,62.80
2018-07-04T16:58:34.864Z,62.00
2018-07-04T17:01:14.579Z,62.50
2018-07-04T17:03:54.055Z,65.50
2018-07-04T17:06:33.728Z,65.40
2018-07-04T17:09:13.276Z,63.60
2018-07-04T17:11:53.045Z,63.90
2018-07-04T17:14:32.578Z,65.40
2018-07-04T17:17:12.238Z,64.50
2018-07-04T17:19:51.850Z,64.50
2018-07-04T17:22:31.411Z,65.70
2018-07-04T17:25:10.984Z,66.10
2018-07-04T17:30:24.234Z,65.80
2018-07-04T17:33:03.859Z,66.10
2018-07-04T17:35:43.400Z,65.70
2018-07-04T17:38:22.945Z,67.30
2018-07-04T17:41:02.468Z,67.40
2018-07-04T17:43:41.936Z,67.60
2018-07-04T17:46:21.675Z,66.20
2018-07-04T17:49:01.262Z,66.20
2018-07-04T17:51:41.062Z,65.80
2018-07-04T17:54:20.652Z,66.20
2018-07-04T17:57:00.379Z,66.60
2018-07-04T17:59:39.880Z,66.50
2018-07-04T18:02:19.559Z,66.90
2018-07-04T18:04:59.151Z,66.40
2018-07-04T18:07:38.860Z,67.80
2018-07-04T18:10:18.404Z,68.80
2018-07-04T18:12:58.056Z,69.60
2018-07-04T18:15:37.648Z,66.80
2018-07-04T18:18:17.180Z,68.70
2018-07-04T18:20:56.803Z,67.40
2018-07-04T18:23:36.461Z,68.20
2018-07-04T18:26:16.015Z,70.00
2018-07-04T18:28:55.534Z,72.40
2018-07-04T18:31:35.168Z,74.60
2018-07-04T18:34:14.627Z,76.00
2018-07-04T18:36:54.273Z,76.20
2018-07-04T18:39:33.758Z,76.30
2018-07-04T18:42:13.223Z,76.60
2018-07-04T18:44:52.824Z,76.50
2018-07-04T18:47:32.385Z,76.90
2018-07-04T18:50:12.089Z,76.40
2018-07-04T18:52:52.584Z,77.50
2018-07-04T18:55:35.392Z,77.80
2018-07-04T18:58:14.894Z,78.50
2018-07-04T19:00:54.564Z,80.10
2018-07-04T19:03:34.196Z,80.60
2018-07-04T19:06:13.731Z,81.00
2018-07-04T19:08:53.285Z,81.40
2018-07-04T19:11:32.739Z,81.70
2018-07-04T19:14:12.227Z,80.60
2018-07-04T19:16:51.784Z,81.10
2018-07-04T19:19:31.430Z,81.50
2018-07-04T19:22:12.005Z,81.70
2018-07-04T19:24:51.498Z,82.00
2018-07-04T19:27:31.060Z,82.10
2018-07-04T19:30:10.624Z,83.40
2018-07-04T19:32:50.286Z,84.70
2018-07-04T19:35:29.999Z,84.70
2018-07-04T19:38:09.520Z,85.30
2018-07-04T19:40:49.129Z,85.80
2018-07-04T19:43:28.826Z,85.30
2018-07-04T19:46:08.469Z,85.70
2018-07-04T19:48:48.147Z,85.80
2018-07-04T19:51:27.925Z,85.80
2018-07-04T19:54:07.611Z,86.60
2018-07-04T19:56:47.141Z,87.10
2018-07-04T19:59:26.829Z,87.50
2018-07-04T20:02:06.346Z,87.80
2018-07-04T20:04:45.913Z,87.70
2018-07-04T20:07:25.556Z,88.00
2018-07-04T20:10:05.337Z,88.40
2018-07-04T20:12:45.036Z,89.00
2018-07-04T20:15:24.622Z,88.50
2018-07-04T20:18:04.392Z,88.20
2018-07-04T20:20:43.944Z,88.40
2018-07-04T20:23:23.566Z,87.40
2018-07-04T20:26:03.396Z,88.40
2018-07-04T20:28:42.956Z,88.20
2018-07-04T20:31:22.462Z,89.00
2018-07-04T20:39:28.936Z,89.20
2018-07-04T20:42:08.498Z,89.70
2018-07-04T20:44:48.181Z,90.50
2018-07-04T20:47:27.829Z,91.10
2018-07-04T20:50:07.471Z,91.30
2018-07-04T20:52:47.112Z,91.40
2018-07-04T20:55:26.699Z,91.50
2018-07-04T20:58:06.300Z,91.80
2018-07-04T21:00:45.801Z,92.00
2018-07-04T21:03:25.372Z,92.10
2018-07-04T21:06:04.832Z,92.10
2018-07-04T21:11:18.477Z,92.30
2018-07-04T21:13:59.884Z,92.00
2018-07-04T21:16:40.117Z,91.90
2018-07-04T21:19:19.648Z,91.90
2018-07-04T21:21:59.334Z,92.10
2018-07-04T21:24:39.071Z,92.40
2018-07-04T21:27:18.665Z,92.30
2018-07-04T21:29:58.344Z,92.40
2018-07-04T21:32:37.852Z,92.70
2018-07-04T21:35:17.846Z,92.70
2018-07-04T21:37:57.416Z,92.60
2018-07-04T21:40:37.091Z,92.80
2018-07-04T21:43:16.692Z,93.10
2018-07-04T21:45:56.166Z,93.00
2018-07-04T21:48:35.718Z,93.10
2018-07-04T21:51:15.358Z,92.80
2018-07-04T21:53:54.900Z,92.90
2018-07-04T21:56:34.475Z,93.60
2018-07-04T21:59:14.094Z,94.20
2018-07-04T22:01:53.861Z,94.40
2018-07-04T22:04:33.400Z,94.40
2018-07-04T22:07:12.932Z,94.80
2018-07-04T22:09:52.589Z,95.00
2018-07-04T22:12:32.007Z,95.10
2018-07-04T22:15:11.744Z,95.00
2018-07-04T22:17:51.292Z,95.00
2018-07-04T22:20:30.958Z,95.10
2018-07-04T22:23:10.493Z,95.00
2018-07-04T22:25:50.116Z,94.90
2018-07-04T22:28:29.659Z,94.80
2018-07-04T22:31:09.428Z,94.80
2018-07-04T22:33:48.952Z,95.00
2018-07-04T22:36:28.504Z,95.00
2018-07-04T22:39:07.920Z,94.60
2018-07-04T22:41:47.569Z,94.70
2018-07-04T22:44:27.111Z,95.30
2018-07-04T22:47:07.024Z,95.70
2018-07-04T22:49:46.559Z,95.90
2018-07-04T22:52:26.110Z,96.00
2018-07-04T22:55:05.495Z,96.00
2018-07-04T22:57:45.045Z,95.80
2018-07-04T23:03:16.681Z,95.90
2018-07-04T23:05:56.259Z,96.00
2018-07-04T23:08:35.801Z,95.80
2018-07-04T23:11:15.361Z,95.70
2018-07-04T23:13:54.887Z,95.50
2018-07-04T23:16:34.271Z,95.60
2018-07-04T23:19:13.916Z,95.60
2018-07-04T23:21:53.423Z,95.50
2018-07-04T23:24:33.133Z,95.50
2018-07-04T23:27:12.629Z,95.40
2018-07-04T23:32:26.164Z,95.30
2018-07-04T23:35:05.668Z,95.40
2018-07-04T23:37:45.441Z,95.50
2018-07-04T23:40:25.061Z,95.50
2018-07-04T23:43:04.501Z,95.30
2018-07-04T23:45:44.180Z,95.30
2018-07-04T23:48:23.685Z,95.30
2018-07-04T23:51:03.373Z,95.50
2018-07-04T23:53:43.070Z,95.50
2018-07-04T23:56:22.629Z,95.50
2018-07-04T23:59:02.230Z,95.60
